sensor_id;sensor_type;location;lat;lon;timestamp;P1;durP1;ratioP1;P2;durP2;ratioP2
62633;SDS011;48704;50.534;6.442;2023-04-06T00:00:58;13.77;;;6.40;;
62633;SDS011;48704;50.534;6.442;2023-04-06T00:03:23;18.40;;;7.35;;
62633;SDS011;48704;50.534;6.442;2023-04-06T00:05:48;16.15;;;7.70;;
62633;SDS011;48704;50.534;6.442;2023-04-06T00:08:14;18.35;;;6.45;;
62633;SDS011;48704;50.534;6.442;2023-04-06T00:10:39;16.60;;;6.90;;
62633;SDS011;48704;50.534;6.442;2023-04-06T00:13:05;14.20;;;6.65;;
62633;SDS011;48704;50.534;6.442;2023-04-06T00:15:32;17.17;;;7.15;;
62633;SDS011;48704;50.534;6.442;2023-04-06T00:17:57;13.18;;;6.63;;
62633;SDS011;48704;50.534;6.442;2023-04-06T00:20:22;12.95;;;6.45;;
62633;SDS011;48704;50.534;6.442;2023-04-06T00:22:48;15.27;;;6.75;;
62633;SDS011;48704;50.534;6.442;2023-04-06T00:25:13;13.15;;;6.53;;
62633;SDS011;48704;50.534;6.442;2023-04-06T00:27:40;16.17;;;6.22;;
62633;SDS011;48704;50.534;6.442;2023-04-06T00:30:06;12.20;;;5.53;;
62633;SDS011;48704;50.534;6.442;2023-04-06T00:32:32;18.85;;;6.40;;
62633;SDS011;48704;50.534;6.442;2023-04-06T00:34:58;13.38;;;6.28;;
62633;SDS011;48704;50.534;6.442;2023-04-06T00:37:24;12.35;;;4.88;;
62633;SDS011;48704;50.534;6.442;2023-04-06T00:39:49;11.68;;;5.95;;
62633;SDS011;48704;50.534;6.442;2023-04-06T00:42:16;10.18;;;5.43;;
62633;SDS011;48704;50.534;6.442;2023-04-06T00:44:43;12.15;;;5.40;;
62633;SDS011;48704;50.534;6.442;2023-04-06T00:47:08;10.88;;;5.20;;
62633;SDS011;48704;50.534;6.442;2023-04-06T00:49:34;11.50;;;5.15;;
62633;SDS011;48704;50.534;6.442;2023-04-06T00:52:00;9.27;;;5.07;;
62633;SDS011;48704;50.534;6.442;2023-04-06T00:54:26;11.15;;;4.93;;
62633;SDS011;48704;50.534;6.442;2023-04-06T00:56:52;10.73;;;5.30;;
62633;SDS011;48704;50.534;6.442;2023-04-06T00:59:18;10.63;;;5.30;;
62633;SDS011;48704;50.534;6.442;2023-04-06T01:01:43;11.02;;;5.47;;
62633;SDS011;48704;50.534;6.442;2023-04-06T01:04:08;12.15;;;6.03;;
62633;SDS011;48704;50.534;6.442;2023-04-06T01:06:34;11.27;;;5.45;;
62633;SDS011;48704;50.534;6.442;2023-04-06T01:08:59;14.57;;;5.88;;
62633;SDS011;48704;50.534;6.442;2023-04-06T01:11:25;12.57;;;6.00;;
62633;SDS011;48704;50.534;6.442;2023-04-06T01:13:51;11.27;;;5.95;;
62633;SDS011;48704;50.534;6.442;2023-04-06T01:16:16;12.95;;;5.97;;
62633;SDS011;48704;50.534;6.442;2023-04-06T01:18:42;16.60;;;6.80;;
62633;SDS011;48704;50.534;6.442;2023-04-06T01:21:07;13.30;;;6.22;;
62633;SDS011;48704;50.534;6.442;2023-04-06T01:23:33;13.48;;;5.72;;
62633;SDS011;48704;50.534;6.442;2023-04-06T01:25:59;11.88;;;6.30;;
62633;SDS011;48704;50.534;6.442;2023-04-06T01:28:25;11.82;;;5.88;;
62633;SDS011;48704;50.534;6.442;2023-04-06T01:30:50;10.32;;;5.70;;
62633;SDS011;48704;50.534;6.442;2023-04-06T01:33:15;13.13;;;6.38;;
62633;SDS011;48704;50.534;6.442;2023-04-06T01:35:41;13.20;;;5.75;;
62633;SDS011;48704;50.534;6.442;2023-04-06T01:38:06;12.70;;;5.85;;
62633;SDS011;48704;50.534;6.442;2023-04-06T01:40:31;12.15;;;5.82;;
62633;SDS011;48704;50.534;6.442;2023-04-06T01:42:57;11.30;;;5.15;;
62633;SDS011;48704;50.534;6.442;2023-04-06T01:45:22;12.40;;;5.50;;
62633;SDS011;48704;50.534;6.442;2023-04-06T01:47:47;16.50;;;5.65;;
62633;SDS011;48704;50.534;6.442;2023-04-06T01:50:12;15.35;;;5.85;;
62633;SDS011;48704;50.534;6.442;2023-04-06T01:52:38;16.02;;;5.32;;
62633;SDS011;48704;50.534;6.442;2023-04-06T01:55:03;12.93;;;5.32;;
62633;SDS011;48704;50.534;6.442;2023-04-06T01:57:28;9.48;;;5.18;;
62633;SDS011;48704;50.534;6.442;2023-04-06T01:59:54;14.18;;;5.75;;
62633;SDS011;48704;50.534;6.442;2023-04-06T02:02:19;17.13;;;6.38;;
62633;SDS011;48704;50.534;6.442;2023-04-06T02:04:45;11.40;;;6.30;;
62633;SDS011;48704;50.534;6.442;2023-04-06T02:07:10;17.17;;;6.57;;
62633;SDS011;48704;50.534;6.442;2023-04-06T02:09:35;14.60;;;6.97;;
62633;SDS011;48704;50.534;6.442;2023-04-06T02:12:01;13.90;;;6.63;;
62633;SDS011;48704;50.534;6.442;2023-04-06T02:14:27;16.70;;;7.32;;
62633;SDS011;48704;50.534;6.442;2023-04-06T02:16:52;14.77;;;6.63;;
62633;SDS011;48704;50.534;6.442;2023-04-06T02:19:18;14.52;;;6.40;;
62633;SDS011;48704;50.534;6.442;2023-04-06T02:21:43;14.95;;;6.95;;
62633;SDS011;48704;50.534;6.442;2023-04-06T02:24:09;12.23;;;5.88;;
62633;SDS011;48704;50.534;6.442;2023-04-06T02:26:34;11.23;;;5.95;;
62633;SDS011;48704;50.534;6.442;2023-04-06T02:28:59;13.18;;;6.10;;
62633;SDS011;48704;50.534;6.442;2023-04-06T02:31:26;14.82;;;6.07;;
62633;SDS011;48704;50.534;6.442;2023-04-06T02:33:52;13.65;;;7.13;;
62633;SDS011;48704;50.534;6.442;2023-04-06T02:36:17;15.27;;;6.45;;
62633;SDS011;48704;50.534;6.442;2023-04-06T02:38:42;12.70;;;6.10;;
62633;SDS011;48704;50.534;6.442;2023-04-06T02:41:08;13.98;;;6.53;;
62633;SDS011;48704;50.534;6.442;2023-04-06T02:43:33;13.70;;;6.43;;
62633;SDS011;48704;50.534;6.442;2023-04-06T02:45:59;14.18;;;5.65;;
62633;SDS011;48704;50.534;6.442;2023-04-06T02:48:25;12.77;;;5.63;;
62633;SDS011;48704;50.534;6.442;2023-04-06T02:50:50;14.90;;;6.82;;
62633;SDS011;48704;50.534;6.442;2023-04-06T02:53:15;15.77;;;6.28;;
62633;SDS011;48704;50.534;6.442;2023-04-06T02:55:40;13.48;;;6.32;;
62633;SDS011;48704;50.534;6.442;2023-04-06T02:58:06;12.00;;;6.05;;
62633;SDS011;48704;50.534;6.442;2023-04-06T03:00:31;14.85;;;6.80;;
62633;SDS011;48704;50.534;6.442;2023-04-06T03:02:56;16.30;;;6.57;;
62633;SDS011;48704;50.534;6.442;2023-04-06T03:05:22;14.10;;;6.13;;
62633;SDS011;48704;50.534;6.442;2023-04-06T03:07:47;10.95;;;6.10;;
62633;SDS011;48704;50.534;6.442;2023-04-06T03:10:12;14.07;;;6.93;;
62633;SDS011;48704;50.534;6.442;2023-04-06T03:12:38;12.63;;;5.82;;
62633;SDS011;48704;50.534;6.442;2023-04-06T03:15:03;15.10;;;6.75;;
62633;SDS011;48704;50.534;6.442;2023-04-06T03:17:29;11.48;;;5.88;;
62633;SDS011;48704;50.534;6.442;2023-04-06T03:19:54;13.60;;;6.35;;
62633;SDS011;48704;50.534;6.442;2023-04-06T03:22:20;18.92;;;6.95;;
62633;SDS011;48704;50.534;6.442;2023-04-06T03:24:45;11.35;;;6.10;;
62633;SDS011;48704;50.534;6.442;2023-04-06T03:27:11;15.30;;;6.80;;
62633;SDS011;48704;50.534;6.442;2023-04-06T03:29:36;15.00;;;6.35;;
62633;SDS011;48704;50.534;6.442;2023-04-06T03:32:01;15.85;;;6.97;;
62633;SDS011;48704;50.534;6.442;2023-04-06T03:34:27;16.98;;;7.55;;
62633;SDS011;48704;50.534;6.442;2023-04-06T03:36:52;12.38;;;7.10;;
62633;SDS011;48704;50.534;6.442;2023-04-06T03:39:17;16.98;;;7.10;;
62633;SDS011;48704;50.534;6.442;2023-04-06T03:41:43;15.18;;;7.10;;
62633;SDS011;48704;50.534;6.442;2023-04-06T03:44:09;13.75;;;6.80;;
62633;SDS011;48704;50.534;6.442;2023-04-06T03:46:35;14.50;;;6.45;;
62633;SDS011;48704;50.534;6.442;2023-04-06T03:49:00;14.98;;;6.68;;
62633;SDS011;48704;50.534;6.442;2023-04-06T03:51:27;14.07;;;6.82;;
62633;SDS011;48704;50.534;6.442;2023-04-06T03:53:52;13.90;;;6.47;;
62633;SDS011;48704;50.534;6.442;2023-04-06T03:56:18;15.90;;;7.18;;
62633;SDS011;48704;50.534;6.442;2023-04-06T03:58:43;13.70;;;6.40;;
62633;SDS011;48704;50.534;6.442;2023-04-06T04:01:10;13.18;;;6.35;;
62633;SDS011;48704;50.534;6.442;2023-04-06T04:03:35;15.38;;;7.82;;
62633;SDS011;48704;50.534;6.442;2023-04-06T04:06:01;14.90;;;6.72;;
62633;SDS011;48704;50.534;6.442;2023-04-06T04:08:26;13.73;;;7.38;;
62633;SDS011;48704;50.534;6.442;2023-04-06T04:10:51;14.88;;;7.15;;
62633;SDS011;48704;50.534;6.442;2023-04-06T04:13:16;16.70;;;8.15;;
62633;SDS011;48704;50.534;6.442;2023-04-06T04:15:42;13.35;;;6.50;;
62633;SDS011;48704;50.534;6.442;2023-04-06T04:18:07;18.17;;;7.05;;
62633;SDS011;48704;50.534;6.442;2023-04-06T04:20:32;17.13;;;6.60;;
62633;SDS011;48704;50.534;6.442;2023-04-06T04:22:59;20.48;;;7.93;;
62633;SDS011;48704;50.534;6.442;2023-04-06T04:25:24;15.98;;;6.80;;
62633;SDS011;48704;50.534;6.442;2023-04-06T04:27:49;19.85;;;7.45;;
62633;SDS011;48704;50.534;6.442;2023-04-06T04:30:15;17.83;;;7.30;;
62633;SDS011;48704;50.534;6.442;2023-04-06T04:32:40;16.45;;;7.22;;
62633;SDS011;48704;50.534;6.442;2023-04-06T04:35:06;15.80;;;7.55;;
62633;SDS011;48704;50.534;6.442;2023-04-06T04:37:32;14.35;;;6.97;;
62633;SDS011;48704;50.534;6.442;2023-04-06T04:39:57;16.25;;;7.70;;
62633;SDS011;48704;50.534;6.442;2023-04-06T04:42:22;20.17;;;7.78;;
62633;SDS011;48704;50.534;6.442;2023-04-06T04:44:47;13.57;;;6.57;;
62633;SDS011;48704;50.534;6.442;2023-04-06T04:47:13;15.30;;;7.80;;
62633;SDS011;48704;50.534;6.442;2023-04-06T04:49:38;18.23;;;7.82;;
62633;SDS011;48704;50.534;6.442;2023-04-06T04:52:03;15.30;;;7.38;;
62633;SDS011;48704;50.534;6.442;2023-04-06T04:54:29;18.67;;;8.10;;
62633;SDS011;48704;50.534;6.442;2023-04-06T04:56:54;21.38;;;9.07;;
62633;SDS011;48704;50.534;6.442;2023-04-06T04:59:19;18.88;;;7.78;;
62633;SDS011;48704;50.534;6.442;2023-04-06T05:01:45;14.23;;;7.10;;
62633;SDS011;48704;50.534;6.442;2023-04-06T05:04:10;19.38;;;7.40;;
62633;SDS011;48704;50.534;6.442;2023-04-06T05:06:35;22.05;;;8.57;;
62633;SDS011;48704;50.534;6.442;2023-04-06T05:09:01;19.95;;;7.55;;
62633;SDS011;48704;50.534;6.442;2023-04-06T05:11:26;22.00;;;8.77;;
62633;SDS011;48704;50.534;6.442;2023-04-06T05:13:51;15.98;;;7.70;;
62633;SDS011;48704;50.534;6.442;2023-04-06T05:16:17;20.00;;;8.57;;
62633;SDS011;48704;50.534;6.442;2023-04-06T05:18:42;21.48;;;8.48;;
62633;SDS011;48704;50.534;6.442;2023-04-06T05:21:07;19.38;;;8.85;;
62633;SDS011;48704;50.534;6.442;2023-04-06T05:23:35;19.38;;;8.05;;
62633;SDS011;48704;50.534;6.442;2023-04-06T05:26:00;20.95;;;9.10;;
62633;SDS011;48704;50.534;6.442;2023-04-06T05:28:26;19.50;;;8.18;;
62633;SDS011;48704;50.534;6.442;2023-04-06T05:30:51;21.95;;;7.93;;
62633;SDS011;48704;50.534;6.442;2023-04-06T05:33:16;19.67;;;7.55;;
62633;SDS011;48704;50.534;6.442;2023-04-06T05:35:42;25.10;;;8.23;;
62633;SDS011;48704;50.534;6.442;2023-04-06T05:38:07;22.70;;;8.50;;
62633;SDS011;48704;50.534;6.442;2023-04-06T05:40:34;18.90;;;8.77;;
62633;SDS011;48704;50.534;6.442;2023-04-06T05:42:59;16.65;;;7.95;;
62633;SDS011;48704;50.534;6.442;2023-04-06T05:45:25;25.85;;;9.20;;
62633;SDS011;48704;50.534;6.442;2023-04-06T05:47:50;21.08;;;8.93;;
62633;SDS011;48704;50.534;6.442;2023-04-06T05:50:16;15.57;;;7.03;;
62633;SDS011;48704;50.534;6.442;2023-04-06T05:52:41;24.30;;;9.10;;
62633;SDS011;48704;50.534;6.442;2023-04-06T05:55:08;15.32;;;8.43;;
62633;SDS011;48704;50.534;6.442;2023-04-06T05:57:34;16.92;;;8.35;;
62633;SDS011;48704;50.534;6.442;2023-04-06T05:59:59;19.83;;;8.90;;
62633;SDS011;48704;50.534;6.442;2023-04-06T06:02:24;20.27;;;8.52;;
62633;SDS011;48704;50.534;6.442;2023-04-06T06:04:50;22.10;;;9.65;;
62633;SDS011;48704;50.534;6.442;2023-04-06T06:07:15;24.85;;;11.35;;
62633;SDS011;48704;50.534;6.442;2023-04-06T06:09:42;26.90;;;11.80;;
62633;SDS011;48704;50.534;6.442;2023-04-06T06:12:07;24.50;;;10.18;;
62633;SDS011;48704;50.534;6.442;2023-04-06T06:14:32;22.88;;;8.98;;
62633;SDS011;48704;50.534;6.442;2023-04-06T06:16:58;16.92;;;7.38;;
62633;SDS011;48704;50.534;6.442;2023-04-06T06:19:23;19.70;;;8.80;;
62633;SDS011;48704;50.534;6.442;2023-04-06T06:21:48;16.83;;;7.32;;
62633;SDS011;48704;50.534;6.442;2023-04-06T06:24:13;19.25;;;7.95;;
62633;SDS011;48704;50.534;6.442;2023-04-06T06:26:39;18.02;;;8.85;;
62633;SDS011;48704;50.534;6.442;2023-04-06T06:29:04;15.60;;;7.80;;
62633;SDS011;48704;50.534;6.442;2023-04-06T06:31:31;22.13;;;9.55;;
62633;SDS011;48704;50.534;6.442;2023-04-06T06:33:56;16.20;;;8.05;;
62633;SDS011;48704;50.534;6.442;2023-04-06T06:36:22;23.23;;;8.82;;
62633;SDS011;48704;50.534;6.442;2023-04-06T06:38:47;19.73;;;8.10;;
62633;SDS011;48704;50.534;6.442;2023-04-06T06:41:12;19.30;;;8.65;;
62633;SDS011;48704;50.534;6.442;2023-04-06T06:43:38;18.02;;;8.18;;
62633;SDS011;48704;50.534;6.442;2023-04-06T06:46:03;21.30;;;9.32;;
62633;SDS011;48704;50.534;6.442;2023-04-06T06:48:29;16.02;;;7.85;;
62633;SDS011;48704;50.534;6.442;2023-04-06T06:50:55;16.02;;;8.43;;
62633;SDS011;48704;50.534;6.442;2023-04-06T06:53:21;14.40;;;7.18;;
62633;SDS011;48704;50.534;6.442;2023-04-06T06:55:46;15.85;;;7.82;;
62633;SDS011;48704;50.534;6.442;2023-04-06T06:58:13;16.63;;;7.63;;
62633;SDS011;48704;50.534;6.442;2023-04-06T07:00:39;16.25;;;6.80;;
62633;SDS011;48704;50.534;6.442;2023-04-06T07:03:04;13.88;;;7.07;;
62633;SDS011;48704;50.534;6.442;2023-04-06T07:05:30;19.55;;;7.03;;
62633;SDS011;48704;50.534;6.442;2023-04-06T07:07:55;15.57;;;7.63;;
62633;SDS011;48704;50.534;6.442;2023-04-06T07:10:21;15.23;;;7.18;;
62633;SDS011;48704;50.534;6.442;2023-04-06T07:12:46;16.23;;;7.70;;
62633;SDS011;48704;50.534;6.442;2023-04-06T07:15:12;14.52;;;7.45;;
62633;SDS011;48704;50.534;6.442;2023-04-06T07:17:37;19.50;;;7.50;;
62633;SDS011;48704;50.534;6.442;2023-04-06T07:20:02;17.27;;;7.53;;
62633;SDS011;48704;50.534;6.442;2023-04-06T07:22:28;21.40;;;7.78;;
62633;SDS011;48704;50.534;6.442;2023-04-06T07:24:54;16.27;;;6.88;;
62633;SDS011;48704;50.534;6.442;2023-04-06T07:27:19;20.00;;;6.68;;
62633;SDS011;48704;50.534;6.442;2023-04-06T07:29:45;19.58;;;8.55;;
62633;SDS011;48704;50.534;6.442;2023-04-06T07:32:10;16.23;;;7.15;;
62633;SDS011;48704;50.534;6.442;2023-04-06T07:34:36;17.95;;;7.75;;
62633;SDS011;48704;50.534;6.442;2023-04-06T07:37:01;20.73;;;8.35;;
62633;SDS011;48704;50.534;6.442;2023-04-06T07:39:27;23.20;;;7.45;;
62633;SDS011;48704;50.534;6.442;2023-04-06T07:41:53;16.80;;;7.32;;
62633;SDS011;48704;50.534;6.442;2023-04-06T07:44:18;18.48;;;7.07;;
62633;SDS011;48704;50.534;6.442;2023-04-06T07:46:44;20.70;;;7.57;;
62633;SDS011;48704;50.534;6.442;2023-04-06T07:49:09;15.95;;;6.97;;
62633;SDS011;48704;50.534;6.442;2023-04-06T07:51:36;17.08;;;7.68;;
62633;SDS011;48704;50.534;6.442;2023-04-06T07:54:02;21.40;;;7.78;;
62633;SDS011;48704;50.534;6.442;2023-04-06T07:56:28;21.60;;;7.05;;
62633;SDS011;48704;50.534;6.442;2023-04-06T07:58:53;19.88;;;7.65;;
62633;SDS011;48704;50.534;6.442;2023-04-06T08:01:21;17.55;;;7.60;;
62633;SDS011;48704;50.534;6.442;2023-04-06T08:03:46;16.92;;;6.97;;
62633;SDS011;48704;50.534;6.442;2023-04-06T08:06:12;15.65;;;7.57;;
62633;SDS011;48704;50.534;6.442;2023-04-06T08:08:37;16.30;;;7.28;;
62633;SDS011;48704;50.534;6.442;2023-04-06T08:11:02;19.73;;;7.50;;
62633;SDS011;48704;50.534;6.442;2023-04-06T08:13:28;16.33;;;6.30;;
62633;SDS011;48704;50.534;6.442;2023-04-06T08:15:53;20.65;;;7.72;;
62633;SDS011;48704;50.534;6.442;2023-04-06T08:18:19;17.65;;;6.60;;
62633;SDS011;48704;50.534;6.442;2023-04-06T08:20:44;17.40;;;7.40;;
62633;SDS011;48704;50.534;6.442;2023-04-06T08:23:10;17.52;;;7.50;;
62633;SDS011;48704;50.534;6.442;2023-04-06T08:25:36;17.25;;;6.90;;
62633;SDS011;48704;50.534;6.442;2023-04-06T08:28:02;15.25;;;7.00;;
62633;SDS011;48704;50.534;6.442;2023-04-06T08:30:28;16.23;;;7.15;;
62633;SDS011;48704;50.534;6.442;2023-04-06T08:32:54;18.67;;;7.88;;
62633;SDS011;48704;50.534;6.442;2023-04-06T08:35:20;20.25;;;7.43;;
62633;SDS011;48704;50.534;6.442;2023-04-06T08:37:45;18.02;;;7.20;;
62633;SDS011;48704;50.534;6.442;2023-04-06T08:40:11;13.27;;;6.05;;
62633;SDS011;48704;50.534;6.442;2023-04-06T08:42:39;16.88;;;6.50;;
62633;SDS011;48704;50.534;6.442;2023-04-06T08:45:06;15.88;;;7.13;;
62633;SDS011;48704;50.534;6.442;2023-04-06T08:47:34;18.58;;;7.75;;
62633;SDS011;48704;50.534;6.442;2023-04-06T08:49:59;19.02;;;8.00;;
62633;SDS011;48704;50.534;6.442;2023-04-06T08:52:29;16.10;;;7.43;;
62633;SDS011;48704;50.534;6.442;2023-04-06T08:54:56;15.52;;;5.57;;
62633;SDS011;48704;50.534;6.442;2023-04-06T08:57:22;16.08;;;7.07;;
62633;SDS011;48704;50.534;6.442;2023-04-06T08:59:48;17.77;;;6.70;;
62633;SDS011;48704;50.534;6.442;2023-04-06T09:02:15;13.40;;;6.00;;
62633;SDS011;48704;50.534;6.442;2023-04-06T09:04:43;21.00;;;8.05;;
62633;SDS011;48704;50.534;6.442;2023-04-06T09:07:14;15.88;;;6.78;;
62633;SDS011;48704;50.534;6.442;2023-04-06T09:09:40;16.95;;;6.93;;
62633;SDS011;48704;50.534;6.442;2023-04-06T09:12:21;18.67;;;7.57;;
62633;SDS011;48704;50.534;6.442;2023-04-06T09:14:54;19.67;;;7.95;;
62633;SDS011;48704;50.534;6.442;2023-04-06T09:17:27;21.75;;;7.88;;
62633;SDS011;48704;50.534;6.442;2023-04-06T09:19:54;20.58;;;8.18;;
62633;SDS011;48704;50.534;6.442;2023-04-06T09:22:20;19.38;;;8.18;;
62633;SDS011;48704;50.534;6.442;2023-04-06T09:24:49;19.13;;;8.82;;
62633;SDS011;48704;50.534;6.442;2023-04-06T09:27:16;20.17;;;8.52;;
62633;SDS011;48704;50.534;6.442;2023-04-06T09:29:43;16.73;;;7.55;;
62633;SDS011;48704;50.534;6.442;2023-04-06T09:32:09;20.88;;;8.35;;
62633;SDS011;48704;50.534;6.442;2023-04-06T09:34:38;17.50;;;8.98;;
62633;SDS011;48704;50.534;6.442;2023-04-06T09:39:38;21.38;;;8.77;;
62633;SDS011;48704;50.534;6.442;2023-04-06T09:42:04;20.13;;;7.85;;
62633;SDS011;48704;50.534;6.442;2023-04-06T09:44:29;19.45;;;8.02;;
62633;SDS011;48704;50.534;6.442;2023-04-06T09:46:55;18.95;;;6.82;;
62633;SDS011;48704;50.534;6.442;2023-04-06T09:49:20;20.80;;;8.18;;
62633;SDS011;48704;50.534;6.442;2023-04-06T09:52:06;20.42;;;8.13;;
62633;SDS011;48704;50.534;6.442;2023-04-06T09:54:35;20.40;;;7.28;;
62633;SDS011;48704;50.534;6.442;2023-04-06T09:59:50;18.25;;;7.88;;
62633;SDS011;48704;50.534;6.442;2023-04-06T10:02:29;16.30;;;7.60;;
62633;SDS011;48704;50.534;6.442;2023-04-06T10:05:05;18.95;;;8.32;;
62633;SDS011;48704;50.534;6.442;2023-04-06T10:07:39;18.98;;;8.15;;
62633;SDS011;48704;50.534;6.442;2023-04-06T10:10:06;17.88;;;8.30;;
62633;SDS011;48704;50.534;6.442;2023-04-06T10:12:33;15.18;;;7.18;;
62633;SDS011;48704;50.534;6.442;2023-04-06T10:14:58;16.88;;;7.63;;
62633;SDS011;48704;50.534;6.442;2023-04-06T10:17:24;18.25;;;8.18;;
62633;SDS011;48704;50.534;6.442;2023-04-06T10:19:52;18.98;;;8.25;;
62633;SDS011;48704;50.534;6.442;2023-04-06T10:22:26;18.92;;;7.60;;
62633;SDS011;48704;50.534;6.442;2023-04-06T10:25:00;17.80;;;7.60;;
62633;SDS011;48704;50.534;6.442;2023-04-06T10:27:29;13.57;;;6.88;;
62633;SDS011;48704;50.534;6.442;2023-04-06T10:30:00;18.52;;;7.78;;
62633;SDS011;48704;50.534;6.442;2023-04-06T10:32:35;17.40;;;7.88;;
62633;SDS011;48704;50.534;6.442;2023-04-06T10:35:10;15.93;;;7.70;;
62633;SDS011;48704;50.534;6.442;2023-04-06T10:40:18;13.93;;;6.75;;
62633;SDS011;48704;50.534;6.442;2023-04-06T10:42:48;15.50;;;6.90;;
62633;SDS011;48704;50.534;6.442;2023-04-06T10:45:26;16.27;;;7.32;;
62633;SDS011;48704;50.534;6.442;2023-04-06T10:47:56;15.88;;;7.03;;
62633;SDS011;48704;50.534;6.442;2023-04-06T10:50:21;15.30;;;6.95;;
62633;SDS011;48704;50.534;6.442;2023-04-06T10:52:58;18.13;;;7.05;;
62633;SDS011;48704;50.534;6.442;2023-04-06T10:55:25;20.55;;;8.90;;
62633;SDS011;48704;50.534;6.442;2023-04-06T10:57:51;16.80;;;6.53;;
62633;SDS011;48704;50.534;6.442;2023-04-06T11:00:17;18.00;;;6.95;;
62633;SDS011;48704;50.534;6.442;2023-04-06T11:02:44;13.73;;;6.45;;
62633;SDS011;48704;50.534;6.442;2023-04-06T11:05:11;14.35;;;6.70;;
62633;SDS011;48704;50.534;6.442;2023-04-06T11:07:39;12.15;;;6.18;;
62633;SDS011;48704;50.534;6.442;2023-04-06T11:10:05;12.15;;;6.13;;
62633;SDS011;48704;50.534;6.442;2023-04-06T11:12:31;13.05;;;6.03;;
62633;SDS011;48704;50.534;6.442;2023-04-06T11:14:57;12.95;;;6.68;;
62633;SDS011;48704;50.534;6.442;2023-04-06T11:17:29;14.45;;;6.57;;
62633;SDS011;48704;50.534;6.442;2023-04-06T11:19:56;14.13;;;6.68;;
62633;SDS011;48704;50.534;6.442;2023-04-06T11:22:22;14.93;;;6.75;;
62633;SDS011;48704;50.534;6.442;2023-04-06T11:24:48;14.20;;;6.65;;
62633;SDS011;48704;50.534;6.442;2023-04-06T11:27:14;12.15;;;6.30;;
62633;SDS011;48704;50.534;6.442;2023-04-06T11:29:41;13.63;;;6.82;;
62633;SDS011;48704;50.534;6.442;2023-04-06T11:32:07;18.23;;;7.70;;
62633;SDS011;48704;50.534;6.442;2023-04-06T11:34:36;14.52;;;7.28;;
62633;SDS011;48704;50.534;6.442;2023-04-06T11:37:07;16.30;;;7.75;;
62633;SDS011;48704;50.534;6.442;2023-04-06T11:39:40;14.10;;;7.18;;
62633;SDS011;48704;50.534;6.442;2023-04-06T11:42:20;15.32;;;6.15;;
62633;SDS011;48704;50.534;6.442;2023-04-06T11:44:46;14.73;;;6.85;;
62633;SDS011;48704;50.534;6.442;2023-04-06T11:47:16;12.63;;;5.40;;
62633;SDS011;48704;50.534;6.442;2023-04-06T11:49:42;14.90;;;6.45;;
62633;SDS011;48704;50.534;6.442;2023-04-06T11:52:22;11.25;;;5.85;;
62633;SDS011;48704;50.534;6.442;2023-04-06T11:54:49;12.52;;;5.38;;
62633;SDS011;48704;50.534;6.442;2023-04-06T11:57:16;12.43;;;5.60;;
62633;SDS011;48704;50.534;6.442;2023-04-06T11:59:42;14.20;;;5.85;;
62633;SDS011;48704;50.534;6.442;2023-04-06T12:02:08;15.30;;;6.28;;
62633;SDS011;48704;50.534;6.442;2023-04-06T12:04:34;14.45;;;6.63;;
62633;SDS011;48704;50.534;6.442;2023-04-06T12:06:59;19.38;;;8.35;;
62633;SDS011;48704;50.534;6.442;2023-04-06T12:09:25;16.00;;;7.63;;
62633;SDS011;48704;50.534;6.442;2023-04-06T12:11:50;13.68;;;5.30;;
62633;SDS011;48704;50.534;6.442;2023-04-06T12:14:16;14.43;;;6.40;;
62633;SDS011;48704;50.534;6.442;2023-04-06T12:16:41;17.23;;;6.88;;
62633;SDS011;48704;50.534;6.442;2023-04-06T12:19:06;11.77;;;6.63;;
62633;SDS011;48704;50.534;6.442;2023-04-06T12:21:32;15.45;;;7.15;;
62633;SDS011;48704;50.534;6.442;2023-04-06T12:23:58;13.95;;;6.40;;
62633;SDS011;48704;50.534;6.442;2023-04-06T12:26:24;20.50;;;8.80;;
62633;SDS011;48704;50.534;6.442;2023-04-06T12:28:50;13.32;;;5.72;;
62633;SDS011;48704;50.534;6.442;2023-04-06T12:31:19;16.42;;;5.88;;
62633;SDS011;48704;50.534;6.442;2023-04-06T12:33:46;12.25;;;5.65;;
62633;SDS011;48704;50.534;6.442;2023-04-06T12:36:13;14.82;;;6.10;;
62633;SDS011;48704;50.534;6.442;2023-04-06T12:38:40;13.98;;;6.20;;
62633;SDS011;48704;50.534;6.442;2023-04-06T12:41:06;18.48;;;7.03;;
62633;SDS011;48704;50.534;6.442;2023-04-06T12:43:32;14.93;;;6.50;;
62633;SDS011;48704;50.534;6.442;2023-04-06T12:45:57;10.02;;;4.82;;
62633;SDS011;48704;50.534;6.442;2023-04-06T12:48:23;16.20;;;7.70;;
62633;SDS011;48704;50.534;6.442;2023-04-06T12:50:55;15.52;;;7.07;;
62633;SDS011;48704;50.534;6.442;2023-04-06T12:53:22;13.85;;;6.93;;
62633;SDS011;48704;50.534;6.442;2023-04-06T12:55:47;12.30;;;7.05;;
62633;SDS011;48704;50.534;6.442;2023-04-06T12:58:12;16.17;;;6.82;;
62633;SDS011;48704;50.534;6.442;2023-04-06T13:00:38;16.85;;;8.25;;
62633;SDS011;48704;50.534;6.442;2023-04-06T13:03:03;17.15;;;6.88;;
62633;SDS011;48704;50.534;6.442;2023-04-06T13:05:28;17.23;;;7.50;;
62633;SDS011;48704;50.534;6.442;2023-04-06T13:07:54;13.90;;;6.57;;
62633;SDS011;48704;50.534;6.442;2023-04-06T13:10:19;16.00;;;6.68;;
62633;SDS011;48704;50.534;6.442;2023-04-06T13:12:45;14.27;;;6.43;;
62633;SDS011;48704;50.534;6.442;2023-04-06T13:15:10;16.73;;;7.45;;
62633;SDS011;48704;50.534;6.442;2023-04-06T13:17:36;16.40;;;6.97;;
62633;SDS011;48704;50.534;6.442;2023-04-06T13:20:01;13.70;;;6.13;;
62633;SDS011;48704;50.534;6.442;2023-04-06T13:22:28;14.88;;;7.45;;
62633;SDS011;48704;50.534;6.442;2023-04-06T13:24:54;18.77;;;7.90;;
62633;SDS011;48704;50.534;6.442;2023-04-06T13:27:19;12.90;;;7.30;;
62633;SDS011;48704;50.534;6.442;2023-04-06T13:29:45;14.90;;;7.05;;
62633;SDS011;48704;50.534;6.442;2023-04-06T13:32:10;11.55;;;5.85;;
62633;SDS011;48704;50.534;6.442;2023-04-06T13:34:35;11.73;;;6.55;;
62633;SDS011;48704;50.534;6.442;2023-04-06T13:37:01;15.15;;;6.57;;
62633;SDS011;48704;50.534;6.442;2023-04-06T13:39:26;14.57;;;6.38;;
62633;SDS011;48704;50.534;6.442;2023-04-06T13:41:53;13.27;;;5.20;;
62633;SDS011;48704;50.534;6.442;2023-04-06T13:44:20;11.65;;;6.30;;
62633;SDS011;48704;50.534;6.442;2023-04-06T13:46:46;13.27;;;5.68;;
62633;SDS011;48704;50.534;6.442;2023-04-06T13:49:11;14.20;;;5.80;;
62633;SDS011;48704;50.534;6.442;2023-04-06T13:51:36;12.52;;;6.25;;
62633;SDS011;48704;50.534;6.442;2023-04-06T13:54:02;11.88;;;5.97;;
62633;SDS011;48704;50.534;6.442;2023-04-06T13:56:27;14.02;;;7.13;;
62633;SDS011;48704;50.534;6.442;2023-04-06T13:58:56;15.93;;;7.93;;
62633;SDS011;48704;50.534;6.442;2023-04-06T14:01:21;16.05;;;7.07;;
62633;SDS011;48704;50.534;6.442;2023-04-06T14:03:49;19.00;;;8.07;;
62633;SDS011;48704;50.534;6.442;2023-04-06T14:06:15;14.57;;;6.88;;
62633;SDS011;48704;50.534;6.442;2023-04-06T14:08:40;15.73;;;7.30;;
62633;SDS011;48704;50.534;6.442;2023-04-06T14:11:06;14.13;;;7.10;;
62633;SDS011;48704;50.534;6.442;2023-04-06T14:13:36;18.20;;;7.88;;
62633;SDS011;48704;50.534;6.442;2023-04-06T14:16:02;12.73;;;7.05;;
62633;SDS011;48704;50.534;6.442;2023-04-06T14:18:28;15.25;;;7.20;;
62633;SDS011;48704;50.534;6.442;2023-04-06T14:20:56;13.43;;;6.47;;
62633;SDS011;48704;50.534;6.442;2023-04-06T14:23:22;12.45;;;7.60;;
62633;SDS011;48704;50.534;6.442;2023-04-06T14:25:48;12.65;;;7.10;;
62633;SDS011;48704;50.534;6.442;2023-04-06T14:28:13;13.68;;;6.60;;
62633;SDS011;48704;50.534;6.442;2023-04-06T14:30:39;14.27;;;6.80;;
62633;SDS011;48704;50.534;6.442;2023-04-06T14:33:05;11.23;;;5.57;;
62633;SDS011;48704;50.534;6.442;2023-04-06T14:35:30;13.23;;;7.03;;